This is the latest recevied weather packets stored in our database for station/object OE7SBH-WX. If no packets are shown the sender has not sent any weather packets the latest 10 day(s).
| Time | Temp. | Humidity | Pressure | Rain* | Wind** | Luminosity | Snow |
|---|---|---|---|---|---|---|---|
| 1777856730 | 12.78° C | 62% | 1020.6 hPa | 0 mm | - | 0 W/m² | - |
| 1777851333 | 13.89° C | 60% | 1020.4 hPa | 0 mm | - | 0 W/m² | - |
| 1777848362 | 15° C | 51% | 1020.1 hPa | 0 mm | - | 0 W/m² | - |
| 1777847153 | 15.56° C | 46% | 1020 hPa | 0 mm | - | 0 W/m² | - |
| 1777844128 | 16.67° C | 44% | 1019.4 hPa | 0 mm | - | 0 W/m² | - |
| 1777842342 | 16.67° C | 44% | 1019.2 hPa | 0 mm | - | 0 W/m² | - |
| 1777836349 | 18.33° C | 37% | 1018.4 hPa | 0 mm | - | 0 W/m² | - |
| 1777831533 | 20.56° C | 37% | 1017.5 hPa | 0 mm | - | 8 W/m² | - |
| 1777830922 | 21.11° C | 34% | 1017.5 hPa | 0 mm | - | 12 W/m² | - |
| 1777829133 | 23.33° C | 29% | 1017.3 hPa | 0 mm | - | 27 W/m² | - |
| 1777828534 | 23.89° C | 25% | 1017.3 hPa | 0 mm | - | 31 W/m² | - |
| 1777827933 | 25° C | 21% | 1017.2 hPa | 0 mm | - | 40 W/m² | - |
| 1777827328 | 25° C | 22% | 1017.3 hPa | 0 mm | - | 56 W/m² | - |
| 1777823718 | 26.11° C | 22% | 1017.1 hPa | 0 mm | - | 108 W/m² | - |
| 1777820722 | 27.78° C | 16% | 1017 hPa | 0 mm | - | 213 W/m² | - |
| 1777820119 | 28.33° C | 16% | 1017.2 hPa | 0 mm | - | 369 W/m² | - |
| 1777818333 | 27.78° C | 15% | 1017.4 hPa | 0 mm | - | 432 W/m² | - |
| 1777809328 | 27.22° C | 18% | 1018.5 hPa | 0 mm | - | 659 W/m² | - |
| 1777806933 | 25° C | 25% | 1019.2 hPa | 0 mm | - | 675 W/m² | - |
| 1777805728 | 25.56° C | 26% | 1019.4 hPa | 0 mm | - | 668 W/m² | - |
| 1777804528 | 25° C | 27% | 1019.8 hPa | 0 mm | - | 662 W/m² | - |
| 1777798553 | 20.56° C | 35% | 1021.8 hPa | 0 mm | - | 541 W/m² | - |
| 1777796730 | 19.44° C | 41% | 1022.4 hPa | 0 mm | - | 441 W/m² | - |
| 1777790733 | 13.89° C | 57% | 1023.4 hPa | 0 mm | - | 255 W/m² | - |
| 1777788935 | 11.67° C | 69% | 1023.5 hPa | 0 mm | - | 181 W/m² | - |
* Rain latest hour (hover to see other rain measurements)
** Current wind speed in m/s (hover to see current wind gust speed)